Time;durP1;ratioP1;P1;durP2;ratioP2;P2;SDS_P1;SDS_P2;PMS_P1;PMS_P2;Temp;Humidity;BMP_temperature;BMP_pressure;BME280_temperature;BME280_humidity;BME280_pressure;Samples;Min_cycle;Max_cycle;Signal;HPM_P1;HPM_P2
2021/06/07 00:01:52;;;;;;;42.20;34.17;;;;;;;;;;5071892;28;20039;-61
2021/06/07 00:04:17;;;;;;;40.50;33.60;;;;;;;;;;5073499;28;20028;-60
2021/06/07 00:06:42;;;;;;;35.90;31.48;;;;;;;;;;5071402;28;20009;-61
2021/06/07 00:09:09;;;;;;;38.10;31.50;;;;;;;;;;5073045;28;20113;-61
2021/06/07 00:11:35;;;;;;;38.90;32.65;;;;;;;;;;5072943;28;20027;-62
2021/06/07 00:14:02;;;;;;;38.42;31.65;;;;;;;;;;5071747;28;20396;-62
2021/06/07 00:16:28;;;;;;;35.00;30.40;;;;;;;;;;5071843;28;20013;-62
2021/06/07 00:18:53;;;;;;;33.95;29.05;;;;;;;;;;5069447;28;20013;-61
2021/06/07 00:21:20;;;;;;;35.25;30.15;;;;;;;;;;5072900;28;20536;-62
2021/06/07 00:23:47;;;;;;;37.15;31.25;;;;;;;;;;5073170;28;20339;-62
2021/06/07 00:26:12;;;;;;;33.90;29.23;;;;;;;;;;5072790;28;20012;-60
2021/06/07 00:28:37;;;;;;;34.80;29.60;;;;;;;;;;5070030;28;20097;-61
2021/06/07 00:31:03;;;;;;;33.72;28.40;;;;;;;;;;5066662;28;20025;-61
2021/06/07 00:33:29;;;;;;;36.45;29.85;;;;;;;;;;5071461;28;20076;-61
2021/06/07 00:35:55;;;;;;;37.45;30.98;;;;;;;;;;5073204;28;20051;-61
2021/06/07 00:38:20;;;;;;;37.15;29.52;;;;;;;;;;5069835;28;20124;-61
2021/06/07 00:40:45;;;;;;;38.85;30.70;;;;;;;;;;5072375;28;20024;-60
2021/06/07 00:43:11;;;;;;;33.55;29.67;;;;;;;;;;5088247;28;20119;-61
2021/06/07 00:45:37;;;;;;;36.90;31.27;;;;;;;;;;5092345;28;20073;-62
2021/06/07 00:48:03;;;;;;;38.70;29.85;;;;;;;;;;5088817;28;20031;-60
2021/06/07 00:50:35;;;;;;;39.17;29.85;;;;;;;;;;5092834;28;20012;-61
2021/06/07 00:53:01;;;;;;;39.35;31.65;;;;;;;;;;5079731;28;20031;-61
2021/06/07 00:55:28;;;;;;;33.47;28.33;;;;;;;;;;5072612;28;20024;-61
2021/06/07 00:57:53;;;;;;;36.30;29.50;;;;;;;;;;5069543;28;20565;-62
2021/06/07 01:00:19;;;;;;;35.22;29.23;;;;;;;;;;5072347;28;20063;-62
2021/06/07 01:02:44;;;;;;;39.13;29.92;;;;;;;;;;5071960;28;20216;-62
2021/06/07 01:05:10;;;;;;;35.88;29.80;;;;;;;;;;5072647;28;20012;-61
2021/06/07 01:07:35;;;;;;;40.55;30.92;;;;;;;;;;5069460;28;20021;-60
2021/06/07 01:10:01;;;;;;;41.88;32.53;;;;;;;;;;5072499;28;20086;-60
2021/06/07 01:12:26;;;;;;;41.70;31.73;;;;;;;;;;5071801;28;20274;-60
2021/06/07 01:14:53;;;;;;;41.40;31.55;;;;;;;;;;5072326;28;20024;-60
2021/06/07 01:17:18;;;;;;;41.33;32.83;;;;;;;;;;5067881;28;20031;-61
2021/06/07 01:19:43;;;;;;;40.78;32.40;;;;;;;;;;5072271;28;20361;-61
2021/06/07 01:22:09;;;;;;;42.88;32.83;;;;;;;;;;5070882;28;20104;-60
2021/06/07 01:24:34;;;;;;;41.90;33.30;;;;;;;;;;5072212;28;20020;-60
2021/06/07 01:26:59;;;;;;;43.45;33.05;;;;;;;;;;5067814;28;20511;-60
2021/06/07 01:29:24;;;;;;;42.85;33.10;;;;;;;;;;5064008;28;20024;-61
2021/06/07 01:31:50;;;;;;;46.63;34.40;;;;;;;;;;5070869;28;20020;-61
2021/06/07 01:34:15;;;;;;;48.25;35.53;;;;;;;;;;5071920;28;20485;-61
2021/06/07 01:36:41;;;;;;;47.53;36.05;;;;;;;;;;5069947;28;20021;-61
2021/06/07 01:39:06;;;;;;;47.15;35.33;;;;;;;;;;5071113;28;20048;-60
2021/06/07 01:41:31;;;;;;;45.42;35.70;;;;;;;;;;5071912;28;20450;-61
2021/06/07 01:43:56;;;;;;;47.25;36.35;;;;;;;;;;5071969;28;20107;-61
2021/06/07 01:46:22;;;;;;;49.30;36.33;;;;;;;;;;5071974;28;20429;-61
2021/06/07 01:48:47;;;;;;;46.55;35.35;;;;;;;;;;5068761;28;20533;-61
2021/06/07 01:51:12;;;;;;;45.35;34.20;;;;;;;;;;5071724;28;20024;-61
2021/06/07 01:53:38;;;;;;;45.70;36.88;;;;;;;;;;5071571;28;20357;-61
2021/06/07 01:56:04;;;;;;;51.50;37.72;;;;;;;;;;5071988;28;20017;-62
2021/06/07 01:58:30;;;;;;;52.17;37.92;;;;;;;;;;5072216;28;20095;-61
2021/06/07 02:01:15;;;;;;;48.47;35.13;;;;;;;;;;5075706;28;20052;-61
2021/06/07 02:03:41;;;;;;;52.50;37.42;;;;;;;;;;5075617;28;20025;-61
2021/06/07 02:06:09;;;;;;;52.90;38.53;;;;;;;;;;5075946;28;20025;-61
2021/06/07 02:08:34;;;;;;;53.22;39.20;;;;;;;;;;5072740;28;20353;-62
2021/06/07 02:11:03;;;;;;;55.65;39.28;;;;;;;;;;5075636;28;20066;-61
2021/06/07 02:13:28;;;;;;;58.22;39.45;;;;;;;;;;5075445;28;20422;-61
2021/06/07 02:15:54;;;;;;;51.75;37.38;;;;;;;;;;5075453;28;20464;-60
2021/06/07 02:18:19;;;;;;;53.47;38.58;;;;;;;;;;5072749;28;20044;-62
2021/06/07 02:20:44;;;;;;;58.38;40.92;;;;;;;;;;5075444;28;20013;-62
2021/06/07 02:23:09;;;;;;;50.53;38.10;;;;;;;;;;5075171;28;20078;-62
2021/06/07 02:25:35;;;;;;;56.50;38.30;;;;;;;;;;5075262;28;20503;-60
2021/06/07 02:28:00;;;;;;;56.28;40.17;;;;;;;;;;5072528;28;20377;-60
2021/06/07 02:30:27;;;;;;;54.63;38.60;;;;;;;;;;5074986;28;20505;-61
2021/06/07 02:32:54;;;;;;;52.47;37.58;;;;;;;;;;5075071;28;20483;-61
2021/06/07 02:35:20;;;;;;;56.50;39.97;;;;;;;;;;5075064;28;20029;-61
2021/06/07 02:37:47;;;;;;;53.28;37.70;;;;;;;;;;5072542;28;20240;-61
2021/06/07 02:40:14;;;;;;;53.50;37.72;;;;;;;;;;5075107;28;20040;-60
2021/06/07 02:42:41;;;;;;;56.10;39.63;;;;;;;;;;5074618;28;20040;-62
2021/06/07 02:45:08;;;;;;;53.88;39.40;;;;;;;;;;5074968;28;20016;-61
2021/06/07 02:47:33;;;;;;;51.00;37.80;;;;;;;;;;5072126;28;20017;-61
2021/06/07 02:49:58;;;;;;;53.80;37.03;;;;;;;;;;5073699;28;20044;-60
2021/06/07 02:52:24;;;;;;;48.50;36.75;;;;;;;;;;5075302;28;20020;-61
2021/06/07 02:54:49;;;;;;;48.83;35.88;;;;;;;;;;5067757;28;20146;-61
2021/06/07 02:57:14;;;;;;;55.92;37.92;;;;;;;;;;5071718;28;20368;-61
2021/06/07 02:59:39;;;;;;;49.67;36.17;;;;;;;;;;5074669;28;20024;-61
2021/06/07 03:02:04;;;;;;;54.28;37.97;;;;;;;;;;5074839;28;20032;-61
2021/06/07 03:04:30;;;;;;;52.42;37.95;;;;;;;;;;5073192;28;20016;-61
2021/06/07 03:06:55;;;;;;;53.92;37.05;;;;;;;;;;5071735;28;20025;-61
2021/06/07 03:09:20;;;;;;;50.25;36.65;;;;;;;;;;5072605;28;20058;-61
2021/06/07 03:11:45;;;;;;;53.75;38.45;;;;;;;;;;5074469;28;20024;-62
2021/06/07 03:14:11;;;;;;;50.13;36.38;;;;;;;;;;5072627;28;20082;-60
2021/06/07 03:16:36;;;;;;;52.40;37.00;;;;;;;;;;5071706;28;20051;-60
2021/06/07 03:19:01;;;;;;;47.10;36.13;;;;;;;;;;5071444;28;20026;-60
2021/06/07 03:21:26;;;;;;;53.67;37.85;;;;;;;;;;5074315;28;20069;-60
2021/06/07 03:23:52;;;;;;;56.90;39.05;;;;;;;;;;5074304;28;20048;-60
2021/06/07 03:26:17;;;;;;;57.28;39.58;;;;;;;;;;5074034;28;20077;-60
2021/06/07 03:28:42;;;;;;;57.80;39.70;;;;;;;;;;5070229;28;20379;-60
2021/06/07 03:31:08;;;;;;;55.88;38.13;;;;;;;;;;5054180;28;20360;-60
2021/06/07 03:33:33;;;;;;;57.92;38.38;;;;;;;;;;5060975;28;20540;-61
2021/06/07 03:35:59;;;;;;;59.53;39.67;;;;;;;;;;5069306;28;20020;-61
2021/06/07 03:38:25;;;;;;;58.25;38.10;;;;;;;;;;5058452;28;20074;-61
2021/06/07 03:40:52;;;;;;;53.40;38.17;;;;;;;;;;5055608;28;20396;-61
2021/06/07 03:43:18;;;;;;;55.17;37.80;;;;;;;;;;5073555;28;20059;-61
2021/06/07 03:45:44;;;;;;;51.42;36.83;;;;;;;;;;5073739;28;20078;-61
2021/06/07 03:48:09;;;;;;;50.17;35.65;;;;;;;;;;5071117;28;20471;-61
2021/06/07 03:50:35;;;;;;;50.42;36.53;;;;;;;;;;5073765;28;20031;-61
2021/06/07 03:53:00;;;;;;;53.55;38.80;;;;;;;;;;5073641;28;20020;-62
2021/06/07 03:55:26;;;;;;;52.63;35.50;;;;;;;;;;5073619;28;20100;-61
2021/06/07 03:57:52;;;;;;;55.03;37.50;;;;;;;;;;5070342;28;20032;-62
2021/06/07 04:00:19;;;;;;;49.25;35.72;;;;;;;;;;5073542;28;20412;-61
2021/06/07 04:02:46;;;;;;;52.40;36.67;;;;;;;;;;5073516;28;20031;-61
2021/06/07 04:05:11;;;;;;;51.15;35.70;;;;;;;;;;5092914;28;20487;-61
2021/06/07 04:07:36;;;;;;;51.97;36.75;;;;;;;;;;5089556;28;20119;-61
2021/06/07 04:10:07;;;;;;;51.00;36.53;;;;;;;;;;5093736;28;20018;-61
2021/06/07 04:12:33;;;;;;;50.92;35.75;;;;;;;;;;5071699;28;20021;-61
2021/06/07 04:14:58;;;;;;;49.85;36.15;;;;;;;;;;5073021;28;20476;-61
2021/06/07 04:17:23;;;;;;;51.83;35.30;;;;;;;;;;5069283;28;20541;-62
2021/06/07 04:19:48;;;;;;;44.97;34.20;;;;;;;;;;5072850;28;20024;-61
2021/06/07 04:22:14;;;;;;;54.10;35.80;;;;;;;;;;5071004;28;20069;-62
2021/06/07 04:24:39;;;;;;;50.40;36.58;;;;;;;;;;5072442;28;20357;-62
2021/06/07 04:27:04;;;;;;;47.83;34.15;;;;;;;;;;5069782;28;20350;-60
2021/06/07 04:29:30;;;;;;;47.72;36.33;;;;;;;;;;5071905;28;20020;-62
2021/06/07 04:31:55;;;;;;;49.45;34.47;;;;;;;;;;5073089;28;20033;-61
2021/06/07 04:34:20;;;;;;;47.20;34.78;;;;;;;;;;5072736;28;20087;-60
2021/06/07 04:36:45;;;;;;;45.10;32.38;;;;;;;;;;5070555;28;20111;-60
2021/06/07 04:39:11;;;;;;;47.05;34.38;;;;;;;;;;5070717;28;20407;-61
2021/06/07 04:41:36;;;;;;;48.00;34.80;;;;;;;;;;5072264;28;20475;-62
2021/06/07 04:44:01;;;;;;;42.58;33.58;;;;;;;;;;5072436;28;20020;-62
2021/06/07 04:46:27;;;;;;;45.08;32.67;;;;;;;;;;5072195;28;20048;-62
2021/06/07 04:48:52;;;;;;;45.80;33.97;;;;;;;;;;5070503;28;20019;-62
2021/06/07 04:51:17;;;;;;;43.70;31.95;;;;;;;;;;5105049;28;20107;-62
2021/06/07 04:53:43;;;;;;;47.72;34.90;;;;;;;;;;5072500;28;20430;-62
2021/06/07 04:56:08;;;;;;;47.97;34.88;;;;;;;;;;5071877;28;20024;-60
2021/06/07 04:58:33;;;;;;;48.22;34.03;;;;;;;;;;5069587;28;20020;-61
2021/06/07 05:01:00;;;;;;;43.50;32.22;;;;;;;;;;5069667;28;20021;-61
2021/06/07 05:03:26;;;;;;;45.95;34.08;;;;;;;;;;5072113;28;20357;-62
2021/06/07 05:05:51;;;;;;;43.55;33.17;;;;;;;;;;5086547;28;20034;-61
2021/06/07 05:08:16;;;;;;;42.40;32.53;;;;;;;;;;5069967;28;20021;-61
2021/06/07 05:10:42;;;;;;;42.92;32.70;;;;;;;;;;5071778;28;20027;-61
2021/06/07 05:13:07;;;;;;;44.80;32.33;;;;;;;;;;5072273;28;20012;-62
2021/06/07 05:15:32;;;;;;;41.42;31.55;;;;;;;;;;5071651;28;20027;-62
2021/06/07 05:17:58;;;;;;;45.22;32.45;;;;;;;;;;5059188;28;20021;-62
2021/06/07 05:20:24;;;;;;;41.13;30.92;;;;;;;;;;5055929;28;20027;-62
2021/06/07 05:22:50;;;;;;;43.40;33.00;;;;;;;;;;5071995;28;20470;-62
2021/06/07 05:25:16;;;;;;;41.33;30.98;;;;;;;;;;5066078;28;20028;-63
2021/06/07 05:27:41;;;;;;;41.00;31.58;;;;;;;;;;5052649;28;20502;-63
2021/06/07 05:30:07;;;;;;;37.55;31.27;;;;;;;;;;5063456;28;20108;-62
2021/06/07 05:32:33;;;;;;;42.60;31.15;;;;;;;;;;5071014;28;20074;-63
2021/06/07 05:34:59;;;;;;;38.47;30.08;;;;;;;;;;5065882;28;20031;-62
2021/06/07 05:37:24;;;;;;;40.38;29.95;;;;;;;;;;5068765;28;20103;-62
2021/06/07 05:39:50;;;;;;;38.72;30.52;;;;;;;;;;5071698;28;20071;-62
2021/06/07 05:42:15;;;;;;;37.63;29.73;;;;;;;;;;5068017;28;20032;-62
2021/06/07 05:44:40;;;;;;;38.65;31.02;;;;;;;;;;5060667;28;20134;-62
2021/06/07 05:47:06;;;;;;;38.78;30.83;;;;;;;;;;5068509;28;20044;-62
2021/06/07 05:49:31;;;;;;;39.28;30.30;;;;;;;;;;5071532;28;20051;-62
2021/06/07 05:51:56;;;;;;;36.63;29.75;;;;;;;;;;5070887;28;20020;-62
2021/06/07 05:54:21;;;;;;;36.58;29.90;;;;;;;;;;5070950;28;20073;-62
2021/06/07 05:56:53;;;;;;;38.03;29.60;;;;;;;;;;5068359;28;20111;-62
2021/06/07 05:59:19;;;;;;;37.15;30.00;;;;;;;;;;5071538;28;20068;-62
2021/06/07 06:01:44;;;;;;;34.63;27.88;;;;;;;;;;5071773;28;20503;-62
2021/06/07 06:04:09;;;;;;;35.10;29.88;;;;;;;;;;5071810;28;20012;-62
2021/06/07 06:06:35;;;;;;;34.95;28.15;;;;;;;;;;5102423;27;20017;-62
2021/06/07 06:09:00;;;;;;;34.85;28.60;;;;;;;;;;5070012;28;20062;-61
2021/06/07 06:11:25;;;;;;;35.90;28.08;;;;;;;;;;5070435;28;20016;-61
2021/06/07 06:13:51;;;;;;;36.10;27.80;;;;;;;;;;5072044;28;20021;-62
2021/06/07 06:16:19;;;;;;;32.95;26.63;;;;;;;;;;5070067;28;20082;-61
2021/06/07 06:18:45;;;;;;;32.75;26.95;;;;;;;;;;5068184;28;20074;-61
2021/06/07 06:21:11;;;;;;;34.08;27.00;;;;;;;;;;5070085;28;20020;-62
2021/06/07 06:23:38;;;;;;;36.60;28.05;;;;;;;;;;5071261;28;20028;-61
2021/06/07 06:26:04;;;;;;;30.23;25.85;;;;;;;;;;5060698;28;20388;-62
2021/06/07 06:28:29;;;;;;;27.38;23.52;;;;;;;;;;5062979;28;20020;-62
2021/06/07 06:30:55;;;;;;;27.42;22.95;;;;;;;;;;5071531;28;20017;-62
2021/06/07 06:33:20;;;;;;;26.00;22.00;;;;;;;;;;5068918;28;20103;-62
2021/06/07 06:35:45;;;;;;;25.50;22.23;;;;;;;;;;5069906;28;20123;-62
2021/06/07 06:38:11;;;;;;;24.92;21.27;;;;;;;;;;5065195;28;20078;-62
2021/06/07 06:40:37;;;;;;;26.95;22.70;;;;;;;;;;5050916;28;20044;-62
2021/06/07 06:43:04;;;;;;;25.58;22.75;;;;;;;;;;5061338;28;20055;-62
2021/06/07 06:45:29;;;;;;;26.55;21.90;;;;;;;;;;5074560;28;20019;-62
2021/06/07 06:47:57;;;;;;;27.13;23.88;;;;;;;;;;5083932;28;20019;-62
2021/06/07 06:50:24;;;;;;;25.85;21.92;;;;;;;;;;5086842;28;20013;-62
2021/06/07 06:52:49;;;;;;;25.85;21.15;;;;;;;;;;5054753;28;20074;-62
2021/06/07 06:55:15;;;;;;;23.13;20.02;;;;;;;;;;5056026;28;20480;-62
2021/06/07 06:57:40;;;;;;;24.42;20.10;;;;;;;;;;5104048;28;20070;-62
2021/06/07 07:00:06;;;;;;;22.70;20.30;;;;;;;;;;5073524;28;20028;-62
2021/06/07 07:02:32;;;;;;;21.33;19.02;;;;;;;;;;5073297;28;20028;-60
2021/06/07 07:04:57;;;;;;;22.02;19.60;;;;;;;;;;5075104;28;20024;-61
2021/06/07 07:07:22;;;;;;;21.88;19.52;;;;;;;;;;5075119;28;20012;-61
2021/06/07 07:09:48;;;;;;;24.48;20.67;;;;;;;;;;5093180;28;20020;-61
2021/06/07 07:12:13;;;;;;;20.55;18.38;;;;;;;;;;5094529;28;20032;-62
2021/06/07 07:14:39;;;;;;;23.00;20.48;;;;;;;;;;5090849;28;20021;-62
2021/06/07 07:17:04;;;;;;;22.88;20.05;;;;;;;;;;5058462;28;20539;-62
2021/06/07 07:19:30;;;;;;;21.13;19.00;;;;;;;;;;5062348;28;20020;-62
2021/06/07 07:21:55;;;;;;;20.05;17.88;;;;;;;;;;5075141;28;20032;-62
2021/06/07 07:24:21;;;;;;;23.02;20.23;;;;;;;;;;5074815;28;20048;-62
2021/06/07 07:26:46;;;;;;;21.67;18.45;;;;;;;;;;5069087;28;20059;-62
2021/06/07 07:29:11;;;;;;;22.17;19.30;;;;;;;;;;5072237;28;20117;-62
2021/06/07 07:31:36;;;;;;;22.20;19.52;;;;;;;;;;5074449;28;20013;-62
2021/06/07 07:34:02;;;;;;;24.92;22.33;;;;;;;;;;5063379;28;20574;-62
2021/06/07 07:36:27;;;;;;;23.88;21.23;;;;;;;;;;5062231;28;20495;-62
2021/06/07 07:38:52;;;;;;;25.35;21.85;;;;;;;;;;5053506;28;20044;-63
2021/06/07 07:41:17;;;;;;;22.98;20.58;;;;;;;;;;5069401;28;20460;-62
2021/06/07 07:43:43;;;;;;;23.53;20.33;;;;;;;;;;5057495;28;20531;-62
2021/06/07 07:46:08;;;;;;;22.45;19.90;;;;;;;;;;5080003;28;20351;-62
2021/06/07 07:48:33;;;;;;;23.45;20.95;;;;;;;;;;5079385;28;20020;-62
2021/06/07 07:50:58;;;;;;;23.50;20.60;;;;;;;;;;5067149;28;20092;-62
2021/06/07 07:53:24;;;;;;;23.20;20.60;;;;;;;;;;5061985;28;20529;-62
2021/06/07 07:55:51;;;;;;;22.75;20.35;;;;;;;;;;5071823;28;20024;-62
2021/06/07 07:58:16;;;;;;;21.88;19.67;;;;;;;;;;5071004;28;20047;-62
2021/06/07 08:00:42;;;;;;;20.67;18.48;;;;;;;;;;5073104;28;20077;-62
2021/06/07 08:03:07;;;;;;;20.73;18.55;;;;;;;;;;5073348;28;20039;-62
2021/06/07 08:05:33;;;;;;;24.63;21.80;;;;;;;;;;5073267;28;20017;-63
2021/06/07 08:07:59;;;;;;;22.02;19.77;;;;;;;;;;5068994;28;20024;-63
2021/06/07 08:10:24;;;;;;;21.58;19.42;;;;;;;;;;5073280;28;20024;-62
2021/06/07 08:12:49;;;;;;;20.67;18.58;;;;;;;;;;5105256;28;20107;-62
2021/06/07 08:15:15;;;;;;;21.08;18.88;;;;;;;;;;5072763;28;20392;-62
2021/06/07 08:17:40;;;;;;;21.25;19.15;;;;;;;;;;5069568;28;20027;-62
2021/06/07 08:20:06;;;;;;;20.10;18.00;;;;;;;;;;5073219;28;20080;-62
2021/06/07 08:22:31;;;;;;;20.00;17.20;;;;;;;;;;5072580;28;20123;-61
2021/06/07 08:24:57;;;;;;;18.25;16.35;;;;;;;;;;5073103;28;20434;-61
2021/06/07 08:27:22;;;;;;;19.08;17.23;;;;;;;;;;5064952;28;20013;-61
2021/06/07 08:29:49;;;;;;;17.67;15.70;;;;;;;;;;5070027;28;20035;-61
2021/06/07 08:32:14;;;;;;;18.65;15.95;;;;;;;;;;5072968;28;20816;-61
2021/06/07 08:34:39;;;;;;;18.93;16.93;;;;;;;;;;5078811;28;20028;-61
2021/06/07 08:37:05;;;;;;;20.17;18.17;;;;;;;;;;5068806;28;20275;-61
2021/06/07 08:39:30;;;;;;;17.57;15.80;;;;;;;;;;5072454;28;20283;-61
2021/06/07 08:41:57;;;;;;;18.38;16.38;;;;;;;;;;5071908;28;20344;-61
2021/06/07 08:44:22;;;;;;;16.38;14.75;;;;;;;;;;5072754;28;20092;-62
2021/06/07 08:46:47;;;;;;;15.32;13.75;;;;;;;;;;5068381;28;20358;-62
2021/06/07 08:49:13;;;;;;;18.27;16.33;;;;;;;;;;5080020;28;20095;-62
2021/06/07 08:51:38;;;;;;;18.38;16.48;;;;;;;;;;5085553;28;20028;-62
2021/06/07 08:54:04;;;;;;;17.63;15.85;;;;;;;;;;5072283;28;20016;-62
2021/06/07 08:56:30;;;;;;;17.27;15.48;;;;;;;;;;5071647;28;20040;-62
2021/06/07 08:58:55;;;;;;;17.48;15.77;;;;;;;;;;5070306;28;20403;-62
2021/06/07 09:01:20;;;;;;;19.23;15.57;;;;;;;;;;5072158;28;20016;-62
2021/06/07 09:03:45;;;;;;;18.80;17.00;;;;;;;;;;5071687;28;20297;-62
2021/06/07 09:06:10;;;;;;;19.08;17.05;;;;;;;;;;5079477;28;20019;-62
2021/06/07 09:08:37;;;;;;;18.65;16.80;;;;;;;;;;5087722;28;20066;-62
2021/06/07 09:11:30;;;;;;;18.52;16.70;;;;;;;;;;5091262;28;20012;-62
2021/06/07 09:13:55;;;;;;;18.00;16.13;;;;;;;;;;5075055;28;20028;-61
2021/06/07 09:16:21;;;;;;;18.33;16.63;;;;;;;;;;5071959;28;20069;-62
2021/06/07 09:18:47;;;;;;;19.25;16.42;;;;;;;;;;5069185;28;20071;-61
2021/06/07 09:21:32;;;;;;;18.52;16.83;;;;;;;;;;5072166;28;20487;-61
2021/06/07 09:24:04;;;;;;;17.77;15.68;;;;;;;;;;5072018;28;20036;-61
2021/06/07 09:26:34;;;;;;;19.83;17.88;;;;;;;;;;5066672;28;20021;-61
2021/06/07 09:29:00;;;;;;;17.17;15.57;;;;;;;;;;5060732;28;20527;-62
2021/06/07 09:31:31;;;;;;;18.75;16.85;;;;;;;;;;5071588;28;20024;-62
2021/06/07 09:33:56;;;;;;;19.05;17.20;;;;;;;;;;5101276;28;20031;-62
2021/06/07 09:36:27;;;;;;;18.40;16.58;;;;;;;;;;5070222;28;20406;-61
2021/06/07 09:38:54;;;;;;;18.23;16.42;;;;;;;;;;5100157;28;20244;-62
2021/06/07 09:41:19;;;;;;;19.83;17.92;;;;;;;;;;5072209;28;20107;-63
2021/06/07 09:43:49;;;;;;;18.88;16.98;;;;;;;;;;5104151;28;20127;-63
2021/06/07 09:46:14;;;;;;;17.38;15.68;;;;;;;;;;5071652;28;20361;-63
2021/06/07 09:48:39;;;;;;;17.70;15.95;;;;;;;;;;5067415;28;20027;-63
2021/06/07 09:51:05;;;;;;;17.65;15.85;;;;;;;;;;5071477;28;20029;-63
2021/06/07 09:53:55;;;;;;;18.58;16.55;;;;;;;;;;5096781;28;20021;-62
2021/06/07 09:56:20;;;;;;;16.92;15.32;;;;;;;;;;5067783;28;20079;-62
2021/06/07 09:58:46;;;;;;;16.48;14.88;;;;;;;;;;5070409;28;20024;-62
2021/06/07 10:01:14;;;;;;;16.27;14.60;;;;;;;;;;5071725;28;20047;-62
2021/06/07 10:03:42;;;;;;;17.45;15.25;;;;;;;;;;5071643;28;20070;-62
2021/06/07 10:06:21;;;;;;;16.67;15.05;;;;;;;;;;5103871;28;20021;-62
2021/06/07 10:08:48;;;;;;;19.95;18.15;;;;;;;;;;5068079;28;20425;-62
2021/06/07 10:11:20;;;;;;;17.95;16.17;;;;;;;;;;5103946;28;20480;-62
2021/06/07 10:13:46;;;;;;;18.40;16.63;;;;;;;;;;5070542;28;20368;-62
2021/06/07 10:16:11;;;;;;;17.33;15.68;;;;;;;;;;5071572;28;20104;-62
2021/06/07 10:18:37;;;;;;;19.70;17.80;;;;;;;;;;5069848;28;20020;-62
2021/06/07 10:21:04;;;;;;;18.83;17.02;;;;;;;;;;5074933;28;20020;-63
2021/06/07 10:23:30;;;;;;;16.05;14.45;;;;;;;;;;5107507;28;20394;-62
2021/06/07 10:25:57;;;;;;;17.88;16.10;;;;;;;;;;5069457;28;20032;-62
2021/06/07 10:28:23;;;;;;;15.90;14.40;;;;;;;;;;5070590;28;20449;-62
2021/06/07 10:30:49;;;;;;;17.35;15.65;;;;;;;;;;5076089;28;20481;-62
2021/06/07 10:33:33;;;;;;;18.25;16.40;;;;;;;;;;5074973;28;20168;-61
2021/06/07 10:36:18;;;;;;;23.67;21.48;;;;;;;;;;5074941;28;20028;-63
2021/06/07 10:38:43;;;;;;;21.13;19.02;;;;;;;;;;5104282;28;20040;-62
2021/06/07 10:41:19;;;;;;;18.50;16.80;;;;;;;;;;5074236;28;20107;-61
2021/06/07 10:43:46;;;;;;;19.33;17.50;;;;;;;;;;5074019;28;20286;-61
2021/06/07 10:46:21;;;;;;;18.85;17.05;;;;;;;;;;5074613;28;20016;-62
2021/06/07 10:48:50;;;;;;;17.80;16.10;;;;;;;;;;5082479;28;20016;-62
2021/06/07 10:51:16;;;;;;;17.23;15.65;;;;;;;;;;5074515;28;20023;-62
2021/06/07 10:53:41;;;;;;;18.83;17.10;;;;;;;;;;5106299;28;20033;-62
2021/06/07 10:56:10;;;;;;;20.27;18.37;;;;;;;;;;5074581;28;20017;-61
2021/06/07 10:58:35;;;;;;;19.02;17.23;;;;;;;;;;5071838;28;20277;-61
2021/06/07 11:01:04;;;;;;;18.55;16.85;;;;;;;;;;5074253;28;20017;-61
2021/06/07 11:03:31;;;;;;;21.42;19.52;;;;;;;;;;5074387;28;20032;-61
2021/06/07 11:05:58;;;;;;;19.85;18.15;;;;;;;;;;5073915;28;20032;-61
2021/06/07 11:08:30;;;;;;;19.67;18.05;;;;;;;;;;5072203;28;20016;-61
2021/06/07 11:11:00;;;;;;;21.80;19.90;;;;;;;;;;5074304;28;20021;-61
2021/06/07 11:13:29;;;;;;;22.95;21.05;;;;;;;;;;5073013;28;20032;-62
2021/06/07 11:15:58;;;;;;;25.23;23.02;;;;;;;;;;5073938;28;20032;-62
2021/06/07 11:18:25;;;;;;;23.25;21.15;;;;;;;;;;5072435;28;20024;-62
2021/06/07 11:20:53;;;;;;;23.90;21.70;;;;;;;;;;5073506;28;20081;-62
2021/06/07 11:23:19;;;;;;;23.23;21.30;;;;;;;;;;5074512;28;20016;-62
2021/06/07 11:25:49;;;;;;;23.13;21.15;;;;;;;;;;5106218;28;20017;-62
2021/06/07 11:28:44;;;;;;;22.50;20.60;;;;;;;;;;5070183;28;20130;-62
2021/06/07 11:31:15;;;;;;;21.65;19.85;;;;;;;;;;5049060;28;20408;-62
2021/06/07 11:33:56;;;;;;;22.70;20.80;;;;;;;;;;5073484;28;20040;-62
2021/06/07 11:36:41;;;;;;;26.52;24.33;;;;;;;;;;5102906;27;20020;-60
2021/06/07 11:39:07;;;;;;;;;;;;;;;;;;5072788;28;20055;-62
2021/06/07 11:41:55;;;;;;;23.15;20.73;;;;;;;;;;5084476;28;20376;-62
2021/06/07 11:44:40;;;;;;;25.08;22.88;;;;;;;;;;5072475;28;20032;-62
2021/06/07 11:47:05;;;;;;;21.85;20.15;;;;;;;;;;5070886;28;20117;-61
2021/06/07 11:49:30;;;;;;;24.33;22.25;;;;;;;;;;5072564;28;20126;-62
2021/06/07 11:52:06;;;;;;;24.35;22.25;;;;;;;;;;5073994;28;20052;-62
2021/06/07 11:54:34;;;;;;;24.40;22.10;;;;;;;;;;5073230;28;20016;-62
2021/06/07 11:57:00;;;;;;;23.35;21.30;;;;;;;;;;5071203;28;20157;-61
2021/06/07 11:59:27;;;;;;;21.60;19.90;;;;;;;;;;5072543;28;20077;-62
2021/06/07 12:01:52;;;;;;;21.80;19.80;;;;;;;;;;5073602;28;20021;-64
2021/06/07 12:04:24;;;;;;;23.05;20.98;;;;;;;;;;5106217;28;20025;-66
2021/06/07 12:06:50;;;;;;;26.92;24.63;;;;;;;;;;5104023;28;20020;-66
2021/06/07 12:09:19;;;;;;;24.83;22.73;;;;;;;;;;5073069;28;20384;-67
2021/06/07 12:11:44;;;;;;;21.92;20.05;;;;;;;;;;5070694;28;20030;-66
2021/06/07 12:14:09;;;;;;;23.67;21.60;;;;;;;;;;5073694;28;20091;-66
2021/06/07 12:16:38;;;;;;;26.48;24.25;;;;;;;;;;5104936;28;20255;-70
2021/06/07 12:19:09;;;;;;;24.30;22.30;;;;;;;;;;5072123;28;20023;-65
2021/06/07 12:21:34;;;;;;;24.70;22.60;;;;;;;;;;5104807;27;20023;-63
2021/06/07 12:29:25;;;;;;;22.67;20.83;;;;;;;;;;5072668;28;20073;-61
2021/06/07 12:32:09;;;;;;;20.35;18.73;;;;;;;;;;5070661;28;20101;-61
2021/06/07 12:34:38;;;;;;;21.05;19.25;;;;;;;;;;5072589;28;20023;-62
2021/06/07 12:37:04;;;;;;;20.48;18.88;;;;;;;;;;5062087;28;20043;-61
2021/06/07 12:39:30;;;;;;;21.38;19.58;;;;;;;;;;5071593;28;20068;-61
2021/06/07 12:41:55;;;;;;;19.80;18.15;;;;;;;;;;5070739;28;20023;-61
2021/06/07 12:44:21;;;;;;;18.07;16.50;;;;;;;;;;5071058;28;20016;-61
2021/06/07 12:46:51;;;;;;;16.73;15.43;;;;;;;;;;5076451;28;20025;-61
2021/06/07 12:49:26;;;;;;;17.52;15.73;;;;;;;;;;5072646;28;20095;-61
2021/06/07 12:51:56;;;;;;;15.48;14.23;;;;;;;;;;5085492;28;20020;-61
2021/06/07 12:54:21;;;;;;;16.13;14.63;;;;;;;;;;5087249;28;20012;-62
2021/06/07 12:56:49;;;;;;;16.73;15.30;;;;;;;;;;5063752;28;20122;-62
2021/06/07 12:59:14;;;;;;;16.50;15.13;;;;;;;;;;5080152;28;20323;-62
2021/06/07 13:01:41;;;;;;;17.98;16.48;;;;;;;;;;5075981;28;20472;-62
2021/06/07 13:04:06;;;;;;;16.40;15.10;;;;;;;;;;5071644;28;20032;-62
2021/06/07 13:06:42;;;;;;;15.23;14.00;;;;;;;;;;5071796;28;20021;-62
2021/06/07 13:09:08;;;;;;;15.35;14.15;;;;;;;;;;5071814;28;20039;-62
2021/06/07 13:11:33;;;;;;;14.75;13.52;;;;;;;;;;5072025;28;20020;-62
2021/06/07 13:13:59;;;;;;;13.97;12.77;;;;;;;;;;5077307;28;20032;-62
2021/06/07 13:16:26;;;;;;;13.20;12.20;;;;;;;;;;5104747;28;20027;-62
2021/06/07 13:18:56;;;;;;;13.70;12.50;;;;;;;;;;5070360;28;20032;-62
2021/06/07 13:21:31;;;;;;;13.05;12.05;;;;;;;;;;5076990;28;20009;-61
2021/06/07 13:23:57;;;;;;;13.45;12.35;;;;;;;;;;5072642;28;20024;-61
2021/06/07 13:26:30;;;;;;;11.75;10.82;;;;;;;;;;5079427;28;20506;-61
2021/06/07 13:29:09;;;;;;;12.38;11.27;;;;;;;;;;5065785;28;20017;-61
2021/06/07 13:31:45;;;;;;;11.65;10.52;;;;;;;;;;5051038;28;20017;-61
2021/06/07 13:34:14;;;;;;;14.30;13.10;;;;;;;;;;5064713;28;20436;-61
2021/06/07 13:36:39;;;;;;;14.05;12.93;;;;;;;;;;5080587;28;20027;-61
2021/06/07 13:39:04;;;;;;;11.30;10.40;;;;;;;;;;5076919;28;20193;-61
2021/06/07 13:41:29;;;;;;;10.40;9.50;;;;;;;;;;5087928;28;20483;-61
2021/06/07 13:43:55;;;;;;;11.10;10.20;;;;;;;;;;5072252;28;20036;-61
2021/06/07 13:46:24;;;;;;;10.88;10.07;;;;;;;;;;5072219;28;20278;-61
2021/06/07 13:48:49;;;;;;;11.70;10.82;;;;;;;;;;5077212;28;20027;-61
2021/06/07 13:51:14;;;;;;;12.33;11.43;;;;;;;;;;5082464;28;20032;-61
2021/06/07 13:53:41;;;;;;;11.10;10.30;;;;;;;;;;5081047;28;20017;-61
2021/06/07 13:56:09;;;;;;;11.57;10.68;;;;;;;;;;5080356;28;20036;-62
2021/06/07 13:58:51;;;;;;;9.20;8.50;;;;;;;;;;5069951;28;20024;-61
2021/06/07 14:01:19;;;;;;;10.18;9.38;;;;;;;;;;5069890;28;20012;-61
2021/06/07 14:03:44;;;;;;;13.40;10.38;;;;;;;;;;5081873;28;20060;-61
2021/06/07 14:06:10;;;;;;;9.13;8.32;;;;;;;;;;5073786;28;20458;-61
2021/06/07 14:08:49;;;;;;;9.82;9.02;;;;;;;;;;5106877;27;20016;-62
2021/06/07 14:11:15;;;;;;;10.88;9.98;;;;;;;;;;5083222;28;20020;-61
2021/06/07 14:13:40;;;;;;;11.13;10.32;;;;;;;;;;5084717;28;20073;-61
2021/06/07 14:16:06;;;;;;;9.60;8.90;;;;;;;;;;5092340;28;20024;-61
2021/06/07 14:18:31;;;;;;;8.93;8.30;;;;;;;;;;5093352;28;20020;-61
2021/06/07 14:20:57;;;;;;;10.00;9.10;;;;;;;;;;5076069;28;20040;-61
2021/06/07 14:26:08;;;;;;;10.80;9.90;;;;;;;;;;5081225;28;20051;-61